Flight Track Log - Related Links

Times and Time Zones

All times are in EDT time to prevent confusion due to time zone crossing. See the LXJ437 flight status page for this flight to view local times or setup timezone preferences in your user account.

Time Position Orientation Groundspeed Altitude Reporting Facility
EDT Latitude Longitude Course Direction KTS MPH feet Rate Location/Type
Fri 07:35:58 PM 37.9589 -122.0556 36° Northeast 144 166 2,300  Level Oakland Center
Fri 07:37:00 PM 37.9944 -122.0222 36° Northeast 228 262 3,900 2,195 Climbing Oakland Center
Fri 07:38:01 PM 38.0464 -121.9653 41° Northeast 271 312 6,800 2,878 Climbing Oakland Center
Fri 07:39:03 PM 38.0500 -121.8619 87° East 291 335 9,800 2,293 Climbing Oakland Center
Fri 07:40:04 PM 38.0194 -121.7431 108° East 360 414 11,500 1,171 Climbing Oakland Center
Fri 07:41:06 PM 37.9731 -121.6175 115° Southeast 398 458 12,200 2,516 Climbing Oakland Center
Fri 07:42:08 PM 37.8642 -121.5883 168° South 402 463 16,700 4,144 Climbing Oakland Center
Fri 07:42:43 PM 37.7833 -121.5667 168° South 414 476 18,900 815 Climbing Northern TRACON
Fri 07:45:12 PM 37.5372 -121.3822 149° Southeast 453 521 19,200 313 Climbing Oakland Center
Fri 07:46:14 PM 37.4081 -121.2836 149° Southeast 453 521 20,000 387 Climbing Oakland Center
Fri 07:47:16 PM 37.3086 -121.2075 149° Southeast 460 529 20,000 634 Level Oakland Center
Fri 07:48:17 PM 37.1883 -121.1072 146° Southeast 470 541 21,300 976 Climbing Oakland Center
Fri 07:49:19 PM 37.0981 -121.0061 138° Southeast 486 559 22,000 1,951 Climbing Oakland Center
Fri 07:50:20 PM 36.9894 -120.8561 132° Southeast 483 556 25,300 2,439 Climbing Oakland Center
Fri 07:51:22 PM 36.8925 -120.7497 139° Southeast 472 543 27,000 1,500 Climbing Oakland Center
Fri 07:52:24 PM 36.7778 -120.6672 150° Southeast 503 579 28,400 2,341 Climbing Oakland Center
Fri 07:53:25 PM 36.6572 -120.5889 152° Southeast 495 570 31,800 3,073 Climbing Oakland Center
Fri 07:54:27 PM 36.5422 -120.5244 156° South 463 533 34,700 2,878 Climbing Oakland Center
Fri 07:55:28 PM 36.4072 -120.4681 161° South 430 495 37,700 2,390 Climbing Oakland Center
Fri 07:56:30 PM 36.2961 -120.4231 162° South 422 486 39,600 1,452 Climbing Oakland Center
Fri 07:57:32 PM 36.1875 -120.3686 158° South 421 484 40,700 683 Climbing Oakland Center
Fri 07:58:33 PM 36.0811 -120.2900 149° Southeast 439 505 41,000 146 Climbing Oakland Center
Fri 07:59:35 PM 35.9656 -120.2075 150° Southeast 470 541 41,000  Level Oakland Center
Fri 08:00:36 PM 35.8456 -120.1225 150° Southeast 490 564 41,000  Level Oakland Center
Fri 08:01:38 PM 35.7272 -120.0361 149° Southeast 491 565 41,000  Level Oakland Center
Fri 08:02:34 PM 35.6111 -119.9494 149° Southeast 483 556 41,000  Level Los Center
Fri 08:03:35 PM 35.4994 -119.8492 144° Southeast 489 563 41,000  Level Los Center
Fri 08:04:37 PM 35.3856 -119.7528 145° Southeast 492 566 41,000  Level Los Center
Fri 08:05:39 PM 35.2747 -119.6567 145° Southeast 488 562 41,000  Level Los Center
Fri 08:06:41 PM 35.1639 -119.5614 145° Southeast 486 559 41,000  Level Los Center
Fri 08:07:44 PM 35.0514 -119.4658 145° Southeast 489 563 41,000  Level Los Center
Fri 08:08:46 PM 34.9192 -119.3519 145° Southeast 485 558 41,000 -145 Level Los Center
Fri 08:09:48 PM 34.8075 -119.2564 145° Southeast 488 562 40,700 -1,355 Descending Los Center
Fri 08:10:50 PM 34.6967 -119.1653 146° Southeast 482 555 38,200 -2,903 Descending Los Center
Fri 08:11:52 PM 34.5847 -119.0731 146° Southeast 474 545 34,700 -3,435 Descending Los Center
Fri 08:12:54 PM 34.4781 -118.9833 145° Southeast 469 540 31,100 -3,532 Descending Los Center
Fri 08:13:56 PM 34.3647 -118.8911 146° Southeast 490 564 27,400 -3,629 Descending Los Center
Fri 08:14:58 PM 34.2358 -118.8356 160° South 491 565 23,600 -3,919 Descending Los Center
Fri 08:16:00 PM 34.0903 -118.7844 164° South 451 519 19,300 -3,792 Descending Los Center
Fri 08:17:03 PM 33.9731 -118.7414 163° South 432 497 15,700 -2,496 Descending Los Center
Fri 08:18:05 PM 33.8578 -118.6994 163° South 405 466 14,100 -1,210 Descending Los Center
Fri 08:19:07 PM 33.7628 -118.6644 163° South 404 465 13,200 -1,887 Descending Los Center
Fri 08:20:09 PM 33.6608 -118.5917 149° Southeast 363 418 10,200 -2,274 Descending Los Center
Fri 08:21:11 PM 33.6053 -118.5106 129° Southeast 322 371 8,500 -1,597 Descending Los Center
Fri 08:22:13 PM 33.5508 -118.4361 131° Southeast 304 350 6,900 -1,161 Descending Los Center
Fri 08:23:15 PM 33.5225 -118.3672 116° Southeast 308 354 6,100 -871 Descending Los Center
Fri 08:24:17 PM 33.5289 -118.2553 86° East 299 344 5,100 -532 Descending Los Center
Fri 08:25:19 PM 33.5750 -118.1578 60° Northeast 289 333 5,000 -96 Descending Los Center
Fri 08:26:22 PM 33.6136 -118.0778 60° Northeast 283 326 4,900 -44 Descending Los Center
Fri 08:27:36 PM 33.6650 -118.0094 48° Northeast 284 327 4,900 -94 Level Los Center
Fri 08:28:30 PM 33.7333 -117.9333 43° Northeast 264 304 4,700 -842 Descending Southern TRACON
Fri 08:29:30 PM 33.7833 -117.8833 40° Northeast 246 283 3,300 -1,050 Descending Southern TRACON
Fri 08:30:30 PM 33.7500 -117.8333 129° Southeast 174 200 2,600 -1,100 Descending Southern TRACON
Fri 08:31:30 PM 33.7167 -117.8500 203° Southwest 140 161 1,100 -1,200 Descending Southern TRACON
Fri 08:32:30 PM 33.6833 -117.8667 203° Southwest 119 137 200 -900 Descending Southern TRACON
Fri 08:34:00 PM 33.6757 -117.8682 North  Level Estimated
Fri 08:41:00 PM 33.6757 -117.8682 North  Level Estimated

Login

Don't have an account? Register now (free) for customized features, flight alerts, and more!